sensor_id;sensor_type;location;lat;lon;timestamp;temperature;humidity
15143;DHT22;7672;50.834;6.286;2022-12-07T00:01:39;7.40;99.90
15143;DHT22;7672;50.834;6.286;2022-12-07T00:04:10;7.30;99.90
15143;DHT22;7672;50.834;6.286;2022-12-07T00:06:40;7.30;99.90
15143;DHT22;7672;50.834;6.286;2022-12-07T00:09:14;7.40;99.90
15143;DHT22;7672;50.834;6.286;2022-12-07T00:11:43;7.30;99.90
15143;DHT22;7672;50.834;6.286;2022-12-07T00:14:13;7.30;99.90
15143;DHT22;7672;50.834;6.286;2022-12-07T00:16:43;7.30;99.90
15143;DHT22;7672;50.834;6.286;2022-12-07T00:19:26;7.30;99.90
15143;DHT22;7672;50.834;6.286;2022-12-07T00:21:54;7.40;99.90
15143;DHT22;7672;50.834;6.286;2022-12-07T00:24:21;7.40;99.90
15143;DHT22;7672;50.834;6.286;2022-12-07T00:26:48;7.40;99.90
15143;DHT22;7672;50.834;6.286;2022-12-07T00:29:18;7.40;99.90
15143;DHT22;7672;50.834;6.286;2022-12-07T00:31:46;7.40;99.90
15143;DHT22;7672;50.834;6.286;2022-12-07T00:34:16;7.50;99.90
15143;DHT22;7672;50.834;6.286;2022-12-07T00:36:45;7.40;99.90
15143;DHT22;7672;50.834;6.286;2022-12-07T00:39:11;7.40;99.90
15143;DHT22;7672;50.834;6.286;2022-12-07T00:41:38;7.40;99.90
15143;DHT22;7672;50.834;6.286;2022-12-07T00:44:05;7.40;99.90
15143;DHT22;7672;50.834;6.286;2022-12-07T00:46:32;7.40;99.90
15143;DHT22;7672;50.834;6.286;2022-12-07T00:48:59;7.40;99.90
15143;DHT22;7672;50.834;6.286;2022-12-07T00:51:26;7.40;99.90
15143;DHT22;7672;50.834;6.286;2022-12-07T00:53:53;7.40;99.90
15143;DHT22;7672;50.834;6.286;2022-12-07T00:56:25;7.40;99.90
15143;DHT22;7672;50.834;6.286;2022-12-07T00:58:58;7.40;99.90
15143;DHT22;7672;50.834;6.286;2022-12-07T01:01:29;7.40;99.90
15143;DHT22;7672;50.834;6.286;2022-12-07T01:03:58;7.50;99.90
15143;DHT22;7672;50.834;6.286;2022-12-07T01:06:27;7.50;99.90
15143;DHT22;7672;50.834;6.286;2022-12-07T01:08:55;7.50;99.90
15143;DHT22;7672;50.834;6.286;2022-12-07T01:11:25;7.50;99.90
15143;DHT22;7672;50.834;6.286;2022-12-07T01:13:55;7.50;99.90
15143;DHT22;7672;50.834;6.286;2022-12-07T01:16:25;7.50;99.90
15143;DHT22;7672;50.834;6.286;2022-12-07T01:18:55;7.50;99.90
15143;DHT22;7672;50.834;6.286;2022-12-07T01:21:29;7.50;99.90
15143;DHT22;7672;50.834;6.286;2022-12-07T01:23:59;7.50;99.90
15143;DHT22;7672;50.834;6.286;2022-12-07T01:26:26;7.50;99.90
15143;DHT22;7672;50.834;6.286;2022-12-07T01:28:53;7.50;99.90
15143;DHT22;7672;50.834;6.286;2022-12-07T01:31:23;7.50;99.90
15143;DHT22;7672;50.834;6.286;2022-12-07T01:33:53;7.50;99.90
15143;DHT22;7672;50.834;6.286;2022-12-07T01:36:28;7.50;99.90
15143;DHT22;7672;50.834;6.286;2022-12-07T01:38:59;7.50;99.90
15143;DHT22;7672;50.834;6.286;2022-12-07T01:41:31;7.50;99.90
15143;DHT22;7672;50.834;6.286;2022-12-07T01:44:26;7.50;99.90
15143;DHT22;7672;50.834;6.286;2022-12-07T01:47:03;7.50;99.90
15143;DHT22;7672;50.834;6.286;2022-12-07T01:49:45;7.50;99.90
15143;DHT22;7672;50.834;6.286;2022-12-07T01:52:21;7.50;99.90
15143;DHT22;7672;50.834;6.286;2022-12-07T01:54:51;7.50;99.90
15143;DHT22;7672;50.834;6.286;2022-12-07T01:57:21;7.50;99.90
15143;DHT22;7672;50.834;6.286;2022-12-07T01:59:50;7.50;99.90
15143;DHT22;7672;50.834;6.286;2022-12-07T02:02:21;7.50;99.90
15143;DHT22;7672;50.834;6.286;2022-12-07T02:04:53;7.50;99.90
15143;DHT22;7672;50.834;6.286;2022-12-07T02:07:23;7.50;99.90
15143;DHT22;7672;50.834;6.286;2022-12-07T02:09:50;7.50;99.90
15143;DHT22;7672;50.834;6.286;2022-12-07T02:12:17;7.50;99.90
15143;DHT22;7672;50.834;6.286;2022-12-07T02:14:44;7.50;99.90
15143;DHT22;7672;50.834;6.286;2022-12-07T02:17:28;7.50;99.90
15143;DHT22;7672;50.834;6.286;2022-12-07T02:20:26;7.40;99.90
15143;DHT22;7672;50.834;6.286;2022-12-07T02:28:56;7.50;99.90
15143;DHT22;7672;50.834;6.286;2022-12-07T02:31:32;7.50;99.90
15143;DHT22;7672;50.834;6.286;2022-12-07T02:34:07;7.50;99.90
15143;DHT22;7672;50.834;6.286;2022-12-07T02:36:46;7.50;99.90
15143;DHT22;7672;50.834;6.286;2022-12-07T02:39:34;7.50;99.90
15143;DHT22;7672;50.834;6.286;2022-12-07T02:42:19;7.50;99.90
15143;DHT22;7672;50.834;6.286;2022-12-07T02:44:53;7.50;99.90
15143;DHT22;7672;50.834;6.286;2022-12-07T02:47:21;7.50;99.90
15143;DHT22;7672;50.834;6.286;2022-12-07T02:49:51;7.50;99.90
15143;DHT22;7672;50.834;6.286;2022-12-07T02:52:19;7.50;99.90
15143;DHT22;7672;50.834;6.286;2022-12-07T02:54:45;7.50;99.90
15143;DHT22;7672;50.834;6.286;2022-12-07T03:00:07;7.50;99.90
15143;DHT22;7672;50.834;6.286;2022-12-07T03:02:58;7.50;99.90
15143;DHT22;7672;50.834;6.286;2022-12-07T03:05:49;7.50;99.90
15143;DHT22;7672;50.834;6.286;2022-12-07T03:11:11;7.50;99.90
15143;DHT22;7672;50.834;6.286;2022-12-07T03:16:59;7.50;99.90
15143;DHT22;7672;50.834;6.286;2022-12-07T03:19:34;7.50;99.90
15143;DHT22;7672;50.834;6.286;2022-12-07T03:22:10;7.50;99.90
15143;DHT22;7672;50.834;6.286;2022-12-07T03:27:20;7.60;99.90
15143;DHT22;7672;50.834;6.286;2022-12-07T03:29:56;7.50;99.90
15143;DHT22;7672;50.834;6.286;2022-12-07T03:32:38;7.50;99.90
15143;DHT22;7672;50.834;6.286;2022-12-07T03:35:33;7.50;99.90
15143;DHT22;7672;50.834;6.286;2022-12-07T03:38:24;7.50;99.90
15143;DHT22;7672;50.834;6.286;2022-12-07T03:41:21;7.40;99.90
15143;DHT22;7672;50.834;6.286;2022-12-07T03:43:52;7.50;99.90
15143;DHT22;7672;50.834;6.286;2022-12-07T03:51:31;7.40;99.90
15143;DHT22;7672;50.834;6.286;2022-12-07T03:56:38;7.40;99.90
15143;DHT22;7672;50.834;6.286;2022-12-07T03:59:06;7.40;99.90
15143;DHT22;7672;50.834;6.286;2022-12-07T04:01:33;7.40;99.90
15143;DHT22;7672;50.834;6.286;2022-12-07T04:04:00;7.40;99.90
15143;DHT22;7672;50.834;6.286;2022-12-07T04:06:27;7.40;99.90
15143;DHT22;7672;50.834;6.286;2022-12-07T04:08:54;7.40;99.90
15143;DHT22;7672;50.834;6.286;2022-12-07T04:11:21;7.40;99.90
15143;DHT22;7672;50.834;6.286;2022-12-07T04:13:48;7.30;99.90
15143;DHT22;7672;50.834;6.286;2022-12-07T04:16:33;7.40;99.90
15143;DHT22;7672;50.834;6.286;2022-12-07T04:19:06;7.30;99.90
15143;DHT22;7672;50.834;6.286;2022-12-07T04:21:33;7.30;99.90
15143;DHT22;7672;50.834;6.286;2022-12-07T04:24:00;7.30;99.90
15143;DHT22;7672;50.834;6.286;2022-12-07T04:26:26;7.30;99.90
15143;DHT22;7672;50.834;6.286;2022-12-07T04:28:53;7.20;99.90
15143;DHT22;7672;50.834;6.286;2022-12-07T04:31:20;7.20;99.90
15143;DHT22;7672;50.834;6.286;2022-12-07T04:33:47;7.20;99.90
15143;DHT22;7672;50.834;6.286;2022-12-07T04:36:13;7.20;99.90
15143;DHT22;7672;50.834;6.286;2022-12-07T04:38:40;7.20;99.90
15143;DHT22;7672;50.834;6.286;2022-12-07T04:41:08;7.20;99.90
15143;DHT22;7672;50.834;6.286;2022-12-07T04:43:36;7.20;99.90
15143;DHT22;7672;50.834;6.286;2022-12-07T04:46:03;7.10;99.90
15143;DHT22;7672;50.834;6.286;2022-12-07T04:48:30;7.20;99.90
15143;DHT22;7672;50.834;6.286;2022-12-07T04:50:57;7.20;99.90
15143;DHT22;7672;50.834;6.286;2022-12-07T04:53:24;7.10;99.90
15143;DHT22;7672;50.834;6.286;2022-12-07T04:55:50;7.10;99.90
15143;DHT22;7672;50.834;6.286;2022-12-07T04:58:17;7.10;99.90
15143;DHT22;7672;50.834;6.286;2022-12-07T05:00:44;7.10;99.90
15143;DHT22;7672;50.834;6.286;2022-12-07T05:03:11;7.10;99.90
15143;DHT22;7672;50.834;6.286;2022-12-07T05:05:40;7.20;99.90
15143;DHT22;7672;50.834;6.286;2022-12-07T05:08:08;7.20;99.90
15143;DHT22;7672;50.834;6.286;2022-12-07T05:10:34;7.20;99.90
15143;DHT22;7672;50.834;6.286;2022-12-07T05:13:01;7.20;99.90
15143;DHT22;7672;50.834;6.286;2022-12-07T05:15:28;7.20;99.90
15143;DHT22;7672;50.834;6.286;2022-12-07T05:17:55;7.10;99.90
15143;DHT22;7672;50.834;6.286;2022-12-07T05:20:22;7.10;99.90
15143;DHT22;7672;50.834;6.286;2022-12-07T05:22:48;7.10;99.90
15143;DHT22;7672;50.834;6.286;2022-12-07T05:25:15;7.10;99.90
15143;DHT22;7672;50.834;6.286;2022-12-07T05:27:42;7.00;99.90
15143;DHT22;7672;50.834;6.286;2022-12-07T05:30:09;7.00;99.90
15143;DHT22;7672;50.834;6.286;2022-12-07T05:32:36;7.00;99.90
15143;DHT22;7672;50.834;6.286;2022-12-07T05:35:03;7.00;99.90
15143;DHT22;7672;50.834;6.286;2022-12-07T05:37:30;7.00;99.90
15143;DHT22;7672;50.834;6.286;2022-12-07T05:39:57;7.00;99.90
15143;DHT22;7672;50.834;6.286;2022-12-07T05:42:24;7.00;99.90
15143;DHT22;7672;50.834;6.286;2022-12-07T05:44:51;7.00;99.90
15143;DHT22;7672;50.834;6.286;2022-12-07T05:47:18;7.00;99.90
15143;DHT22;7672;50.834;6.286;2022-12-07T05:49:45;7.00;99.90
15143;DHT22;7672;50.834;6.286;2022-12-07T05:52:12;7.00;99.90
15143;DHT22;7672;50.834;6.286;2022-12-07T05:54:38;7.00;99.90
15143;DHT22;7672;50.834;6.286;2022-12-07T05:57:05;7.00;99.90
15143;DHT22;7672;50.834;6.286;2022-12-07T05:59:32;7.00;99.90
15143;DHT22;7672;50.834;6.286;2022-12-07T06:02:05;7.00;99.90
15143;DHT22;7672;50.834;6.286;2022-12-07T06:04:39;7.00;99.90
15143;DHT22;7672;50.834;6.286;2022-12-07T06:07:09;7.00;99.90
15143;DHT22;7672;50.834;6.286;2022-12-07T06:09:36;7.00;99.90
15143;DHT22;7672;50.834;6.286;2022-12-07T06:12:04;7.00;99.90
15143;DHT22;7672;50.834;6.286;2022-12-07T06:14:50;7.00;99.90
15143;DHT22;7672;50.834;6.286;2022-12-07T06:17:17;7.00;99.90
15143;DHT22;7672;50.834;6.286;2022-12-07T06:19:44;7.00;99.90
15143;DHT22;7672;50.834;6.286;2022-12-07T06:22:11;7.00;99.90
15143;DHT22;7672;50.834;6.286;2022-12-07T06:24:39;7.00;99.90
15143;DHT22;7672;50.834;6.286;2022-12-07T06:27:06;7.00;99.90
15143;DHT22;7672;50.834;6.286;2022-12-07T06:29:33;7.00;99.90
15143;DHT22;7672;50.834;6.286;2022-12-07T06:32:01;7.00;99.90
15143;DHT22;7672;50.834;6.286;2022-12-07T06:34:28;7.00;99.90
15143;DHT22;7672;50.834;6.286;2022-12-07T06:36:55;7.00;99.90
15143;DHT22;7672;50.834;6.286;2022-12-07T06:39:24;7.00;99.90
15143;DHT22;7672;50.834;6.286;2022-12-07T06:41:52;7.00;99.90
15143;DHT22;7672;50.834;6.286;2022-12-07T06:44:21;7.10;99.90
15143;DHT22;7672;50.834;6.286;2022-12-07T06:46:49;7.00;99.90
15143;DHT22;7672;50.834;6.286;2022-12-07T06:49:16;7.00;99.90
15143;DHT22;7672;50.834;6.286;2022-12-07T06:51:43;7.10;99.90
15143;DHT22;7672;50.834;6.286;2022-12-07T06:54:12;7.00;99.90
15143;DHT22;7672;50.834;6.286;2022-12-07T06:56:39;7.00;99.90
15143;DHT22;7672;50.834;6.286;2022-12-07T06:59:07;7.00;99.90
15143;DHT22;7672;50.834;6.286;2022-12-07T07:01:35;7.00;99.90
15143;DHT22;7672;50.834;6.286;2022-12-07T07:04:02;7.00;99.90
15143;DHT22;7672;50.834;6.286;2022-12-07T07:06:30;7.00;99.90
15143;DHT22;7672;50.834;6.286;2022-12-07T07:08:57;7.00;99.90
15143;DHT22;7672;50.834;6.286;2022-12-07T07:11:24;7.00;99.90
15143;DHT22;7672;50.834;6.286;2022-12-07T07:13:51;7.00;99.90
15143;DHT22;7672;50.834;6.286;2022-12-07T07:16:17;7.00;99.90
15143;DHT22;7672;50.834;6.286;2022-12-07T07:18:44;7.00;99.90
15143;DHT22;7672;50.834;6.286;2022-12-07T07:21:11;7.00;99.90
15143;DHT22;7672;50.834;6.286;2022-12-07T07:23:38;7.00;99.90
15143;DHT22;7672;50.834;6.286;2022-12-07T07:26:04;7.00;99.90
15143;DHT22;7672;50.834;6.286;2022-12-07T07:28:31;7.00;99.90
15143;DHT22;7672;50.834;6.286;2022-12-07T07:30:58;7.00;99.90
15143;DHT22;7672;50.834;6.286;2022-12-07T07:33:25;7.00;99.90
15143;DHT22;7672;50.834;6.286;2022-12-07T07:35:52;7.00;99.90
15143;DHT22;7672;50.834;6.286;2022-12-07T07:38:18;7.00;99.90
15143;DHT22;7672;50.834;6.286;2022-12-07T07:40:45;7.00;99.90
15143;DHT22;7672;50.834;6.286;2022-12-07T07:43:12;7.00;99.90
15143;DHT22;7672;50.834;6.286;2022-12-07T07:45:39;7.00;99.90
15143;DHT22;7672;50.834;6.286;2022-12-07T07:48:06;7.10;99.90
15143;DHT22;7672;50.834;6.286;2022-12-07T07:50:33;7.10;99.90
15143;DHT22;7672;50.834;6.286;2022-12-07T07:53:00;7.10;99.90
15143;DHT22;7672;50.834;6.286;2022-12-07T07:55:27;7.10;99.90
15143;DHT22;7672;50.834;6.286;2022-12-07T07:57:54;7.10;99.90
15143;DHT22;7672;50.834;6.286;2022-12-07T08:00:21;7.10;99.90
15143;DHT22;7672;50.834;6.286;2022-12-07T08:02:48;7.10;99.90
15143;DHT22;7672;50.834;6.286;2022-12-07T08:05:16;7.10;99.90
15143;DHT22;7672;50.834;6.286;2022-12-07T08:07:43;7.20;99.90
15143;DHT22;7672;50.834;6.286;2022-12-07T08:10:11;7.10;99.90
15143;DHT22;7672;50.834;6.286;2022-12-07T08:12:40;7.20;99.90
15143;DHT22;7672;50.834;6.286;2022-12-07T08:15:29;7.20;99.90
15143;DHT22;7672;50.834;6.286;2022-12-07T08:17:57;7.20;99.90
15143;DHT22;7672;50.834;6.286;2022-12-07T08:20:25;7.20;99.90
15143;DHT22;7672;50.834;6.286;2022-12-07T08:22:52;7.30;99.90
15143;DHT22;7672;50.834;6.286;2022-12-07T08:25:19;7.30;99.90
15143;DHT22;7672;50.834;6.286;2022-12-07T08:27:46;7.30;99.90
15143;DHT22;7672;50.834;6.286;2022-12-07T08:30:13;7.40;99.90
15143;DHT22;7672;50.834;6.286;2022-12-07T08:32:40;7.40;99.90
15143;DHT22;7672;50.834;6.286;2022-12-07T08:35:07;7.40;99.90
15143;DHT22;7672;50.834;6.286;2022-12-07T08:37:35;7.40;99.90
15143;DHT22;7672;50.834;6.286;2022-12-07T08:40:02;7.40;99.90
15143;DHT22;7672;50.834;6.286;2022-12-07T08:42:31;7.50;99.90
15143;DHT22;7672;50.834;6.286;2022-12-07T08:45:06;7.40;99.90
15143;DHT22;7672;50.834;6.286;2022-12-07T08:47:38;7.50;99.90
15143;DHT22;7672;50.834;6.286;2022-12-07T08:50:10;7.50;99.90
15143;DHT22;7672;50.834;6.286;2022-12-07T08:52:38;7.60;99.90
15143;DHT22;7672;50.834;6.286;2022-12-07T08:55:09;7.60;99.90
15143;DHT22;7672;50.834;6.286;2022-12-07T08:57:38;7.70;99.90
15143;DHT22;7672;50.834;6.286;2022-12-07T09:00:06;7.70;99.90
15143;DHT22;7672;50.834;6.286;2022-12-07T09:02:33;7.80;99.90
15143;DHT22;7672;50.834;6.286;2022-12-07T09:05:00;7.90;99.90
15143;DHT22;7672;50.834;6.286;2022-12-07T09:07:27;8.20;99.90
15143;DHT22;7672;50.834;6.286;2022-12-07T09:09:56;8.60;99.90
15143;DHT22;7672;50.834;6.286;2022-12-07T09:12:22;9.10;99.90
15143;DHT22;7672;50.834;6.286;2022-12-07T09:14:49;9.60;99.90
15143;DHT22;7672;50.834;6.286;2022-12-07T09:17:16;10.10;99.90
15143;DHT22;7672;50.834;6.286;2022-12-07T09:19:43;10.60;99.90
15143;DHT22;7672;50.834;6.286;2022-12-07T09:22:09;11.20;99.90
15143;DHT22;7672;50.834;6.286;2022-12-07T09:24:37;11.70;99.90
15143;DHT22;7672;50.834;6.286;2022-12-07T09:27:03;12.20;99.90
15143;DHT22;7672;50.834;6.286;2022-12-07T09:29:30;12.70;99.90
15143;DHT22;7672;50.834;6.286;2022-12-07T09:31:57;13.00;99.90
15143;DHT22;7672;50.834;6.286;2022-12-07T09:34:24;13.30;99.90
15143;DHT22;7672;50.834;6.286;2022-12-07T09:36:52;13.30;99.90
15143;DHT22;7672;50.834;6.286;2022-12-07T09:39:19;13.30;99.90
15143;DHT22;7672;50.834;6.286;2022-12-07T09:41:46;13.20;99.90
15143;DHT22;7672;50.834;6.286;2022-12-07T09:44:24;13.00;99.90
15143;DHT22;7672;50.834;6.286;2022-12-07T09:46:53;12.80;99.90
15143;DHT22;7672;50.834;6.286;2022-12-07T09:49:22;12.60;99.90
15143;DHT22;7672;50.834;6.286;2022-12-07T09:52:19;12.40;99.90
15143;DHT22;7672;50.834;6.286;2022-12-07T09:54:51;12.20;99.90
15143;DHT22;7672;50.834;6.286;2022-12-07T09:57:28;11.90;99.90
15143;DHT22;7672;50.834;6.286;2022-12-07T10:00:02;11.70;99.90
15143;DHT22;7672;50.834;6.286;2022-12-07T10:02:39;11.50;99.90
15143;DHT22;7672;50.834;6.286;2022-12-07T10:05:26;11.30;99.90
15143;DHT22;7672;50.834;6.286;2022-12-07T10:07:55;11.10;99.90
15143;DHT22;7672;50.834;6.286;2022-12-07T10:10:31;11.00;99.90
15143;DHT22;7672;50.834;6.286;2022-12-07T10:13:09;10.80;99.90
15143;DHT22;7672;50.834;6.286;2022-12-07T10:15:52;10.80;99.90
15143;DHT22;7672;50.834;6.286;2022-12-07T10:18:27;10.70;99.90
15143;DHT22;7672;50.834;6.286;2022-12-07T10:21:17;10.60;99.90
15143;DHT22;7672;50.834;6.286;2022-12-07T10:24:04;10.60;99.90
15143;DHT22;7672;50.834;6.286;2022-12-07T10:29:51;10.50;99.90
15143;DHT22;7672;50.834;6.286;2022-12-07T10:34:45;10.60;99.90
15143;DHT22;7672;50.834;6.286;2022-12-07T10:37:19;10.50;99.90
15143;DHT22;7672;50.834;6.286;2022-12-07T10:39:52;10.50;99.90
15143;DHT22;7672;50.834;6.286;2022-12-07T10:42:31;10.50;99.90
15143;DHT22;7672;50.834;6.286;2022-12-07T10:45:09;10.40;99.90
15143;DHT22;7672;50.834;6.286;2022-12-07T10:48:06;10.30;99.90
15143;DHT22;7672;50.834;6.286;2022-12-07T10:51:18;10.30;99.90
15143;DHT22;7672;50.834;6.286;2022-12-07T10:56:51;10.10;99.90
15143;DHT22;7672;50.834;6.286;2022-12-07T11:13:48;10.10;99.90
15143;DHT22;7672;50.834;6.286;2022-12-07T11:16:29;10.40;99.90
15143;DHT22;7672;50.834;6.286;2022-12-07T11:25:58;11.00;99.90
15143;DHT22;7672;50.834;6.286;2022-12-07T11:31:39;11.00;99.90
15143;DHT22;7672;50.834;6.286;2022-12-07T11:37:12;10.90;99.90
15143;DHT22;7672;50.834;6.286;2022-12-07T11:39:57;10.80;99.90
15143;DHT22;7672;50.834;6.286;2022-12-07T11:42:34;10.70;99.90
15143;DHT22;7672;50.834;6.286;2022-12-07T11:50:41;10.50;99.90
15143;DHT22;7672;50.834;6.286;2022-12-07T11:53:18;10.60;99.90
15143;DHT22;7672;50.834;6.286;2022-12-07T11:56:02;10.60;99.90
15143;DHT22;7672;50.834;6.286;2022-12-07T11:58:55;10.70;99.90
15143;DHT22;7672;50.834;6.286;2022-12-07T12:05:14;10.90;99.90
15143;DHT22;7672;50.834;6.286;2022-12-07T12:07:44;11.00;99.90
15143;DHT22;7672;50.834;6.286;2022-12-07T12:10:47;11.10;99.90
15143;DHT22;7672;50.834;6.286;2022-12-07T12:13:36;11.50;99.90
15143;DHT22;7672;50.834;6.286;2022-12-07T12:22:32;11.20;99.90
15143;DHT22;7672;50.834;6.286;2022-12-07T12:25:06;11.20;99.90
15143;DHT22;7672;50.834;6.286;2022-12-07T12:27:47;11.20;99.90
15143;DHT22;7672;50.834;6.286;2022-12-07T12:30:37;11.20;99.90
15143;DHT22;7672;50.834;6.286;2022-12-07T12:33:21;11.20;99.90
15143;DHT22;7672;50.834;6.286;2022-12-07T12:39:10;11.10;99.90
15143;DHT22;7672;50.834;6.286;2022-12-07T12:47:02;11.00;99.90
15143;DHT22;7672;50.834;6.286;2022-12-07T12:49:36;11.00;99.90
15143;DHT22;7672;50.834;6.286;2022-12-07T12:55:12;10.90;99.90
15143;DHT22;7672;50.834;6.286;2022-12-07T12:57:45;10.90;99.90
15143;DHT22;7672;50.834;6.286;2022-12-07T13:00:19;10.80;99.90
15143;DHT22;7672;50.834;6.286;2022-12-07T13:02:53;10.80;99.90
15143;DHT22;7672;50.834;6.286;2022-12-07T13:05:23;10.70;99.90
15143;DHT22;7672;50.834;6.286;2022-12-07T13:08:03;10.70;99.90
15143;DHT22;7672;50.834;6.286;2022-12-07T13:10:45;10.70;99.90
15143;DHT22;7672;50.834;6.286;2022-12-07T13:15:49;10.70;99.90
15143;DHT22;7672;50.834;6.286;2022-12-07T13:26:22;10.60;99.90
15143;DHT22;7672;50.834;6.286;2022-12-07T13:31:47;10.50;99.90
15143;DHT22;7672;50.834;6.286;2022-12-07T13:34:36;10.50;99.90
15143;DHT22;7672;50.834;6.286;2022-12-07T13:40:18;10.50;99.90
15143;DHT22;7672;50.834;6.286;2022-12-07T13:42:46;10.40;99.90
15143;DHT22;7672;50.834;6.286;2022-12-07T13:45:31;10.40;99.90
15143;DHT22;7672;50.834;6.286;2022-12-07T13:48:33;10.40;99.90
15143;DHT22;7672;50.834;6.286;2022-12-07T13:51:24;10.30;99.90
15143;DHT22;7672;50.834;6.286;2022-12-07T13:54:06;10.30;99.90
15143;DHT22;7672;50.834;6.286;2022-12-07T13:56:37;10.20;99.90
15143;DHT22;7672;50.834;6.286;2022-12-07T13:59:17;10.10;99.90
15143;DHT22;7672;50.834;6.286;2022-12-07T14:01:47;10.10;99.90
15143;DHT22;7672;50.834;6.286;2022-12-07T14:04:32;10.00;99.90
15143;DHT22;7672;50.834;6.286;2022-12-07T14:07:25;10.00;99.90
15143;DHT22;7672;50.834;6.286;2022-12-07T14:09:58;9.90;99.90
15143;DHT22;7672;50.834;6.286;2022-12-07T14:12:34;9.90;99.90
15143;DHT22;7672;50.834;6.286;2022-12-07T14:15:03;9.80;99.90
15143;DHT22;7672;50.834;6.286;2022-12-07T14:17:31;9.80;99.90
15143;DHT22;7672;50.834;6.286;2022-12-07T14:19:59;9.70;99.90
15143;DHT22;7672;50.834;6.286;2022-12-07T14:25:21;9.60;99.90
15143;DHT22;7672;50.834;6.286;2022-12-07T14:27:56;9.60;99.90
15143;DHT22;7672;50.834;6.286;2022-12-07T14:30:32;9.60;99.90
15143;DHT22;7672;50.834;6.286;2022-12-07T14:33:04;9.50;99.90
15143;DHT22;7672;50.834;6.286;2022-12-07T14:35:32;9.50;99.90
15143;DHT22;7672;50.834;6.286;2022-12-07T14:37:59;9.50;99.90
15143;DHT22;7672;50.834;6.286;2022-12-07T14:40:28;9.40;99.90
15143;DHT22;7672;50.834;6.286;2022-12-07T14:43:03;9.40;99.90
15143;DHT22;7672;50.834;6.286;2022-12-07T14:45:33;9.30;99.90
15143;DHT22;7672;50.834;6.286;2022-12-07T14:47:59;9.30;99.90
15143;DHT22;7672;50.834;6.286;2022-12-07T14:50:52;9.30;99.90
15143;DHT22;7672;50.834;6.286;2022-12-07T14:53:41;9.20;99.90
15143;DHT22;7672;50.834;6.286;2022-12-07T14:56:18;9.10;99.90
15143;DHT22;7672;50.834;6.286;2022-12-07T14:58:45;9.10;99.90
15143;DHT22;7672;50.834;6.286;2022-12-07T15:01:14;9.00;99.90
15143;DHT22;7672;50.834;6.286;2022-12-07T15:03:41;8.90;99.90
15143;DHT22;7672;50.834;6.286;2022-12-07T15:06:14;8.90;99.90
15143;DHT22;7672;50.834;6.286;2022-12-07T15:08:42;8.80;99.90
15143;DHT22;7672;50.834;6.286;2022-12-07T15:11:14;8.80;99.90
15143;DHT22;7672;50.834;6.286;2022-12-07T15:13:42;8.70;99.90
15143;DHT22;7672;50.834;6.286;2022-12-07T15:16:27;8.70;99.90
15143;DHT22;7672;50.834;6.286;2022-12-07T15:19:19;8.60;99.90
15143;DHT22;7672;50.834;6.286;2022-12-07T15:21:55;8.70;99.90
15143;DHT22;7672;50.834;6.286;2022-12-07T15:24:23;8.50;99.90
15143;DHT22;7672;50.834;6.286;2022-12-07T15:26:50;8.50;99.90
15143;DHT22;7672;50.834;6.286;2022-12-07T15:29:18;8.50;99.90
15143;DHT22;7672;50.834;6.286;2022-12-07T15:31:52;8.50;99.90
15143;DHT22;7672;50.834;6.286;2022-12-07T15:34:26;8.50;99.90
15143;DHT22;7672;50.834;6.286;2022-12-07T15:36:58;8.40;99.90
15143;DHT22;7672;50.834;6.286;2022-12-07T15:39:25;8.40;99.90
15143;DHT22;7672;50.834;6.286;2022-12-07T15:41:52;8.40;99.90
15143;DHT22;7672;50.834;6.286;2022-12-07T15:44:19;8.40;99.90
15143;DHT22;7672;50.834;6.286;2022-12-07T15:47:05;8.30;99.90
15143;DHT22;7672;50.834;6.286;2022-12-07T15:49:32;8.30;99.90
15143;DHT22;7672;50.834;6.286;2022-12-07T15:51:59;8.30;99.90
15143;DHT22;7672;50.834;6.286;2022-12-07T15:54:27;7.80;99.90
15143;DHT22;7672;50.834;6.286;2022-12-07T15:56:56;8.20;99.90
15143;DHT22;7672;50.834;6.286;2022-12-07T15:59:23;8.20;99.90
15143;DHT22;7672;50.834;6.286;2022-12-07T16:01:51;8.20;99.90
15143;DHT22;7672;50.834;6.286;2022-12-07T16:04:18;8.00;99.90
15143;DHT22;7672;50.834;6.286;2022-12-07T16:06:45;8.20;99.90
15143;DHT22;7672;50.834;6.286;2022-12-07T16:09:12;8.20;99.90
15143;DHT22;7672;50.834;6.286;2022-12-07T16:11:39;8.10;99.90
15143;DHT22;7672;50.834;6.286;2022-12-07T16:14:06;8.10;99.90
15143;DHT22;7672;50.834;6.286;2022-12-07T16:16:33;8.10;99.90
15143;DHT22;7672;50.834;6.286;2022-12-07T16:19:00;8.10;99.90
15143;DHT22;7672;50.834;6.286;2022-12-07T16:21:27;8.10;99.90
15143;DHT22;7672;50.834;6.286;2022-12-07T16:23:53;8.10;99.90
15143;DHT22;7672;50.834;6.286;2022-12-07T16:26:21;8.00;99.90
15143;DHT22;7672;50.834;6.286;2022-12-07T16:28:50;8.00;99.90
15143;DHT22;7672;50.834;6.286;2022-12-07T16:31:21;8.00;99.90
15143;DHT22;7672;50.834;6.286;2022-12-07T16:33:50;8.00;99.90
15143;DHT22;7672;50.834;6.286;2022-12-07T16:36:19;7.90;99.90
15143;DHT22;7672;50.834;6.286;2022-12-07T16:39:08;7.90;99.90
15143;DHT22;7672;50.834;6.286;2022-12-07T16:41:36;7.80;99.90
15143;DHT22;7672;50.834;6.286;2022-12-07T16:44:08;7.80;99.90
15143;DHT22;7672;50.834;6.286;2022-12-07T16:46:37;7.80;99.90
15143;DHT22;7672;50.834;6.286;2022-12-07T16:49:05;7.70;99.90
15143;DHT22;7672;50.834;6.286;2022-12-07T16:51:31;7.70;99.90
15143;DHT22;7672;50.834;6.286;2022-12-07T16:54:01;7.70;99.90
15143;DHT22;7672;50.834;6.286;2022-12-07T16:56:27;7.70;99.90
15143;DHT22;7672;50.834;6.286;2022-12-07T16:58:58;7.60;99.90
15143;DHT22;7672;50.834;6.286;2022-12-07T17:01:25;7.60;99.90
15143;DHT22;7672;50.834;6.286;2022-12-07T17:03:55;7.60;99.90
15143;DHT22;7672;50.834;6.286;2022-12-07T17:06:25;7.60;99.90
15143;DHT22;7672;50.834;6.286;2022-12-07T17:08:54;7.60;99.90
15143;DHT22;7672;50.834;6.286;2022-12-07T17:11:24;7.60;99.90
15143;DHT22;7672;50.834;6.286;2022-12-07T17:13:53;7.60;99.90
15143;DHT22;7672;50.834;6.286;2022-12-07T17:16:39;7.60;99.90
15143;DHT22;7672;50.834;6.286;2022-12-07T17:19:08;7.60;99.90
15143;DHT22;7672;50.834;6.286;2022-12-07T17:21:39;7.50;99.90
15143;DHT22;7672;50.834;6.286;2022-12-07T17:24:08;7.50;99.90
15143;DHT22;7672;50.834;6.286;2022-12-07T17:26:38;7.50;99.90
15143;DHT22;7672;50.834;6.286;2022-12-07T17:29:06;7.50;99.90
15143;DHT22;7672;50.834;6.286;2022-12-07T17:31:34;7.50;99.90
15143;DHT22;7672;50.834;6.286;2022-12-07T17:34:02;7.40;99.90
15143;DHT22;7672;50.834;6.286;2022-12-07T17:36:30;7.40;99.90
15143;DHT22;7672;50.834;6.286;2022-12-07T17:38:58;7.40;99.90
15143;DHT22;7672;50.834;6.286;2022-12-07T17:41:27;7.40;99.90
15143;DHT22;7672;50.834;6.286;2022-12-07T17:44:15;7.40;99.90
15143;DHT22;7672;50.834;6.286;2022-12-07T17:46:46;7.30;99.90
15143;DHT22;7672;50.834;6.286;2022-12-07T17:49:14;7.30;99.90
15143;DHT22;7672;50.834;6.286;2022-12-07T17:51:42;7.30;99.90
15143;DHT22;7672;50.834;6.286;2022-12-07T17:54:28;7.30;99.90
15143;DHT22;7672;50.834;6.286;2022-12-07T17:56:55;7.30;99.90
15143;DHT22;7672;50.834;6.286;2022-12-07T17:59:23;7.30;99.90
15143;DHT22;7672;50.834;6.286;2022-12-07T18:01:50;7.30;99.90
15143;DHT22;7672;50.834;6.286;2022-12-07T18:04:17;7.30;99.90
15143;DHT22;7672;50.834;6.286;2022-12-07T18:06:44;7.30;99.90
15143;DHT22;7672;50.834;6.286;2022-12-07T18:09:17;7.30;99.90
15143;DHT22;7672;50.834;6.286;2022-12-07T18:11:45;7.20;99.90
15143;DHT22;7672;50.834;6.286;2022-12-07T18:14:12;7.20;99.90